Time;durP1;ratioP1;P1;durP2;ratioP2;P2;SDS_P1;SDS_P2;PMS_P1;PMS_P2;Temp;Humidity;BMP_temperature;BMP_pressure;BME280_temperature;BME280_humidity;BME280_pressure;Samples;Min_cycle;Max_cycle;Signal;HPM_P1;HPM_P2
2021/06/22 00:00:10;;;;;;;8.57;5.75;;;;;;;;;;4996208;28;20033;-81
2021/06/22 00:02:36;;;;;;;6.78;4.47;;;;;;;;;;5014512;28;20475;-82
2021/06/22 00:05:03;;;;;;;7.40;5.15;;;;;;;;;;5032542;28;20109;-81
2021/06/22 00:07:28;;;;;;;7.97;5.13;;;;;;;;;;5015485;28;20032;-81
2021/06/22 00:09:54;;;;;;;8.48;5.05;;;;;;;;;;5011493;28;20025;-81
2021/06/22 00:12:20;;;;;;;8.27;5.45;;;;;;;;;;4979486;28;20095;-81
2021/06/22 00:14:45;;;;;;;9.48;5.75;;;;;;;;;;4982287;28;20095;-81
2021/06/22 00:17:12;;;;;;;7.65;4.88;;;;;;;;;;4999210;28;20033;-82
2021/06/22 00:19:37;;;;;;;8.52;4.88;;;;;;;;;;5015913;28;20038;-80
2021/06/22 00:22:03;;;;;;;8.32;4.80;;;;;;;;;;5017310;28;20514;-80
2021/06/22 00:24:29;;;;;;;6.30;4.50;;;;;;;;;;5024067;28;20033;-81
2021/06/22 00:26:54;;;;;;;6.95;4.55;;;;;;;;;;5020340;28;20033;-80
2021/06/22 00:29:22;;;;;;;6.78;4.38;;;;;;;;;;5015056;28;20107;-81
2021/06/22 00:31:48;;;;;;;7.32;4.32;;;;;;;;;;5015444;28;20032;-81
2021/06/22 00:34:13;;;;;;;5.93;4.43;;;;;;;;;;5015358;28;20403;-81
2021/06/22 00:36:39;;;;;;;5.45;3.50;;;;;;;;;;5015476;28;20026;-81
2021/06/22 00:39:04;;;;;;;6.97;3.97;;;;;;;;;;4979275;28;20037;-81
2021/06/22 00:41:30;;;;;;;5.55;3.63;;;;;;;;;;4995745;28;20034;-81
2021/06/22 00:44:06;;;;;;;6.63;3.95;;;;;;;;;;4995174;28;20116;-82
2021/06/22 00:46:31;;;;;;;8.60;4.10;;;;;;;;;;5011879;28;20033;-81
2021/06/22 00:48:57;;;;;;;7.07;4.45;;;;;;;;;;4984228;28;20057;-81
2021/06/22 00:51:22;;;;;;;6.00;3.83;;;;;;;;;;4998914;28;20029;-82
2021/06/22 00:53:48;;;;;;;6.55;3.97;;;;;;;;;;4998803;28;20040;-82
2021/06/22 00:56:14;;;;;;;5.40;3.30;;;;;;;;;;4997799;28;20037;-83
2021/06/22 00:58:39;;;;;;;5.72;3.28;;;;;;;;;;4998198;28;20514;-83
2021/06/22 01:01:05;;;;;;;6.07;3.42;;;;;;;;;;5015225;28;20043;-82
2021/06/22 01:03:30;;;;;;;5.20;3.42;;;;;;;;;;4997669;28;20029;-83
2021/06/22 01:05:56;;;;;;;5.80;3.90;;;;;;;;;;4995603;28;20054;-83
2021/06/22 01:08:22;;;;;;;5.05;3.65;;;;;;;;;;4998096;28;20175;-82
2021/06/22 01:10:47;;;;;;;5.70;3.50;;;;;;;;;;5014045;28;20038;-83
2021/06/22 01:13:13;;;;;;;5.13;3.50;;;;;;;;;;5014625;28;20044;-83
2021/06/22 01:15:39;;;;;;;5.32;2.60;;;;;;;;;;5014515;28;20025;-83
2021/06/22 01:18:05;;;;;;;5.25;3.33;;;;;;;;;;5031159;28;20079;-83
2021/06/22 01:20:31;;;;;;;4.90;3.53;;;;;;;;;;5010286;28;20115;-84
2021/06/22 01:23:02;;;;;;;4.78;3.08;;;;;;;;;;4992039;28;20034;-84
2021/06/22 01:25:28;;;;;;;4.82;3.50;;;;;;;;;;5014481;28;20060;-83
2021/06/22 01:27:55;;;;;;;5.35;3.53;;;;;;;;;;4998211;28;20030;-84
2021/06/22 01:30:21;;;;;;;4.70;3.30;;;;;;;;;;4997365;28;20123;-84
2021/06/22 01:32:47;;;;;;;5.55;3.10;;;;;;;;;;5008980;28;20037;-84
2021/06/22 01:35:12;;;;;;;4.97;2.97;;;;;;;;;;5001609;28;20034;-83
2021/06/22 01:37:52;;;;;;;5.30;3.08;;;;;;;;;;5030529;28;20037;-83
2021/06/22 01:40:18;;;;;;;4.95;2.88;;;;;;;;;;4997855;28;20511;-83
2021/06/22 01:42:43;;;;;;;4.65;2.97;;;;;;;;;;4994554;28;20038;-84
2021/06/22 01:45:09;;;;;;;4.95;3.10;;;;;;;;;;5011450;28;20033;-83
2021/06/22 01:47:39;;;;;;;5.15;2.90;;;;;;;;;;5014184;28;20120;-83
2021/06/22 01:50:05;;;;;;;4.18;2.65;;;;;;;;;;5000077;28;20449;-84
2021/06/22 01:52:31;;;;;;;4.90;2.85;;;;;;;;;;4994223;28;20026;-84
2021/06/22 01:54:58;;;;;;;4.65;2.80;;;;;;;;;;5011001;28;20034;-82
2021/06/22 01:57:24;;;;;;;3.95;2.65;;;;;;;;;;4995482;28;20046;-81
2021/06/22 01:59:50;;;;;;;5.18;3.13;;;;;;;;;;4994225;28;20038;-82
2021/06/22 02:02:16;;;;;;;5.40;2.92;;;;;;;;;;4997212;28;20033;-81
2021/06/22 02:04:41;;;;;;;4.60;2.85;;;;;;;;;;4997632;28;20029;-82
2021/06/22 02:07:07;;;;;;;5.57;2.70;;;;;;;;;;4997325;28;20034;-82
2021/06/22 02:09:32;;;;;;;4.53;2.60;;;;;;;;;;4999912;28;20033;-81
2021/06/22 02:11:58;;;;;;;4.20;2.88;;;;;;;;;;5001880;28;20035;-82
2021/06/22 02:14:23;;;;;;;6.00;3.05;;;;;;;;;;5001161;28;20037;-81
2021/06/22 02:16:49;;;;;;;3.88;2.47;;;;;;;;;;5018118;28;20102;-82
2021/06/22 02:19:15;;;;;;;4.57;2.75;;;;;;;;;;4991688;28;20026;-81
2021/06/22 02:21:40;;;;;;;4.60;2.85;;;;;;;;;;5027147;28;20029;-81
2021/06/22 02:24:06;;;;;;;3.75;2.40;;;;;;;;;;5026468;28;20415;-81
2021/06/22 02:26:31;;;;;;;4.30;2.92;;;;;;;;;;4997895;28;20119;-82
2021/06/22 02:28:57;;;;;;;3.15;2.35;;;;;;;;;;5000282;28;20388;-81
2021/06/22 02:31:22;;;;;;;5.28;3.08;;;;;;;;;;4998056;28;20040;-81
2021/06/22 02:37:12;;;;;;;3.28;2.05;;;;;;;;;;5035183;28;20243;-81
2021/06/22 02:43:05;;;;;;;4.55;2.50;;;;;;;;;;5047241;28;20521;-82
2021/06/22 02:52:15;;;;;;;4.05;2.67;;;;;;;;;;5028947;28;20034;-82
2021/06/22 02:54:40;;;;;;;4.22;2.50;;;;;;;;;;5014109;28;20057;-82
2021/06/22 02:57:09;;;;;;;4.40;2.45;;;;;;;;;;4997592;28;20075;-82
2021/06/22 02:59:35;;;;;;;4.28;2.88;;;;;;;;;;4997126;28;20087;-82
2021/06/22 03:02:02;;;;;;;5.00;2.97;;;;;;;;;;4997707;28;20499;-83
2021/06/22 03:04:27;;;;;;;5.07;3.13;;;;;;;;;;4997425;28;20037;-83
2021/06/22 03:06:53;;;;;;;4.63;3.13;;;;;;;;;;5009788;28;20037;-82
2021/06/22 03:09:18;;;;;;;4.00;2.75;;;;;;;;;;5033535;28;20443;-82
2021/06/22 03:11:44;;;;;;;4.60;2.80;;;;;;;;;;5033430;28;20040;-83
2021/06/22 03:14:10;;;;;;;4.22;2.80;;;;;;;;;;5016952;28;20041;-82
2021/06/22 03:16:35;;;;;;;4.63;2.90;;;;;;;;;;5016704;28;20040;-83
2021/06/22 03:19:01;;;;;;;4.22;2.88;;;;;;;;;;5032718;28;20479;-81
2021/06/22 03:21:26;;;;;;;5.75;3.17;;;;;;;;;;5029258;28;20382;-81
2021/06/22 03:23:52;;;;;;;4.40;2.70;;;;;;;;;;5036378;28;20075;-81
2021/06/22 03:26:17;;;;;;;5.25;3.08;;;;;;;;;;5053006;28;20029;-82
2021/06/22 03:28:43;;;;;;;4.15;2.95;;;;;;;;;;5036609;28;20036;-82
2021/06/22 03:31:08;;;;;;;4.35;2.85;;;;;;;;;;5036222;28;20029;-82
2021/06/22 03:33:34;;;;;;;3.85;2.70;;;;;;;;;;5017159;28;20034;-81
2021/06/22 03:35:59;;;;;;;5.05;3.40;;;;;;;;;;5012911;28;20033;-82
2021/06/22 03:38:25;;;;;;;5.30;3.30;;;;;;;;;;4999995;28;20033;-81
2021/06/22 03:40:50;;;;;;;3.38;2.50;;;;;;;;;;5000093;28;20045;-81
2021/06/22 03:43:16;;;;;;;4.85;2.83;;;;;;;;;;5016035;28;20037;-81
2021/06/22 03:45:41;;;;;;;4.45;2.83;;;;;;;;;;5028519;28;20440;-80
2021/06/22 03:48:07;;;;;;;4.07;2.58;;;;;;;;;;5029646;28;20068;-81
2021/06/22 03:50:33;;;;;;;4.50;3.25;;;;;;;;;;5016491;28;20042;-81
2021/06/22 03:52:58;;;;;;;4.13;2.70;;;;;;;;;;4996692;28;20568;-81
2021/06/22 03:55:27;;;;;;;5.05;3.58;;;;;;;;;;4996606;28;20026;-82
2021/06/22 03:57:53;;;;;;;4.30;2.58;;;;;;;;;;5013094;28;20038;-81
2021/06/22 04:00:20;;;;;;;4.18;3.00;;;;;;;;;;5005103;28;20056;-82
2021/06/22 04:02:45;;;;;;;4.72;3.42;;;;;;;;;;5015495;28;20471;-81
2021/06/22 04:05:11;;;;;;;6.03;2.95;;;;;;;;;;5032434;28;20036;-81
2021/06/22 04:07:36;;;;;;;4.43;3.35;;;;;;;;;;5016093;28;20029;-80
2021/06/22 04:10:02;;;;;;;3.75;2.92;;;;;;;;;;5031874;28;20037;-80
2021/06/22 04:12:28;;;;;;;5.07;3.78;;;;;;;;;;5032549;28;20076;-81
2021/06/22 04:14:53;;;;;;;4.32;3.35;;;;;;;;;;5015358;28;20037;-80
2021/06/22 04:17:20;;;;;;;4.32;3.17;;;;;;;;;;5029936;28;20480;-82
2021/06/22 04:19:45;;;;;;;4.90;3.50;;;;;;;;;;4995863;28;20496;-82
2021/06/22 04:22:11;;;;;;;4.57;3.25;;;;;;;;;;5033272;28;20063;-83
2021/06/22 04:24:37;;;;;;;5.28;3.65;;;;;;;;;;5019134;28;20025;-84
2021/06/22 04:27:03;;;;;;;4.78;3.67;;;;;;;;;;5012486;28;20112;-85
2021/06/22 04:29:28;;;;;;;4.22;3.30;;;;;;;;;;4996501;28;20037;-86
2021/06/22 04:31:55;;;;;;;5.18;3.85;;;;;;;;;;5012555;28;20057;-85
2021/06/22 04:34:20;;;;;;;4.53;2.72;;;;;;;;;;4995263;28;20030;-83
2021/06/22 04:36:47;;;;;;;3.90;3.22;;;;;;;;;;5006130;28;20046;-85
2021/06/22 04:39:12;;;;;;;5.47;3.83;;;;;;;;;;5014921;28;20029;-87
2021/06/22 04:41:44;;;;;;;4.55;3.40;;;;;;;;;;4999592;28;20033;-86
2021/06/22 04:44:11;;;;;;;5.88;3.58;;;;;;;;;;5000149;28;20083;-89
2021/06/22 04:46:38;;;;;;;4.50;3.60;;;;;;;;;;4999769;28;20030;-90
2021/06/22 04:49:07;;;;;;;5.13;4.10;;;;;;;;;;5000350;28;20025;-92
2021/06/22 04:51:35;;;;;;;4.63;3.70;;;;;;;;;;5029439;28;20038;-91
2021/06/22 04:54:04;;;;;;;5.15;2.97;;;;;;;;;;5028346;28;20029;-90
2021/06/22 04:56:31;;;;;;;5.75;3.58;;;;;;;;;;5016657;28;20470;-91
2021/06/22 04:58:59;;;;;;;4.82;3.40;;;;;;;;;;5016428;28;20029;-93
2021/06/22 05:01:32;;;;;;;5.93;3.60;;;;;;;;;;5015910;28;20033;-92
2021/06/22 05:04:00;;;;;;;5.88;3.28;;;;;;;;;;5014908;28;20029;-91
2021/06/22 05:06:26;;;;;;;5.65;3.20;;;;;;;;;;5015576;28;20037;-87
2021/06/22 05:08:51;;;;;;;4.32;3.10;;;;;;;;;;5013943;28;20075;-86
2021/06/22 05:11:23;;;;;;;5.30;2.83;;;;;;;;;;5012877;28;20037;-85
2021/06/22 05:13:51;;;;;;;5.60;3.20;;;;;;;;;;5013366;28;20030;-84
2021/06/22 05:16:17;;;;;;;5.35;3.30;;;;;;;;;;5010798;28;20044;-84
2021/06/22 05:18:44;;;;;;;4.47;3.30;;;;;;;;;;4994899;28;20033;-83
2021/06/22 05:21:10;;;;;;;5.72;2.78;;;;;;;;;;5021830;28;20487;-81
2021/06/22 05:23:36;;;;;;;5.07;2.72;;;;;;;;;;4998014;28;20173;-82
2021/06/22 05:26:01;;;;;;;4.78;3.00;;;;;;;;;;5014098;28;20037;-82
2021/06/22 05:28:27;;;;;;;4.32;3.20;;;;;;;;;;5014204;28;20033;-83
2021/06/22 05:30:53;;;;;;;3.67;2.72;;;;;;;;;;5009289;28;20045;-83
2021/06/22 05:33:19;;;;;;;6.25;3.33;;;;;;;;;;5020972;28;20073;-81
2021/06/22 05:35:44;;;;;;;4.47;2.70;;;;;;;;;;5014473;28;20033;-82
2021/06/22 05:38:10;;;;;;;5.97;3.00;;;;;;;;;;5013721;28;20033;-83
2021/06/22 05:40:36;;;;;;;5.57;3.03;;;;;;;;;;5013700;28;20475;-84
2021/06/22 05:43:02;;;;;;;4.70;3.10;;;;;;;;;;4997840;28;20037;-85
2021/06/22 05:45:28;;;;;;;4.20;2.95;;;;;;;;;;4981793;28;20051;-85
2021/06/22 05:47:54;;;;;;;6.75;3.80;;;;;;;;;;4998375;28;20044;-87
2021/06/22 05:50:20;;;;;;;5.22;3.28;;;;;;;;;;5014163;28;20026;-84
2021/06/22 05:52:46;;;;;;;8.15;3.70;;;;;;;;;;5013289;28;20039;-84
2021/06/22 05:55:18;;;;;;;6.07;3.47;;;;;;;;;;5010426;28;20488;-85
2021/06/22 05:57:46;;;;;;;5.00;3.40;;;;;;;;;;4995200;28;20038;-85
2021/06/22 06:00:13;;;;;;;4.97;3.38;;;;;;;;;;5006453;28;20039;-84
2021/06/22 06:02:39;;;;;;;6.28;3.60;;;;;;;;;;5010805;28;20032;-84
2021/06/22 06:05:05;;;;;;;5.05;3.42;;;;;;;;;;5027526;28;20030;-85
2021/06/22 06:07:31;;;;;;;6.88;2.90;;;;;;;;;;5027461;28;20025;-84
2021/06/22 06:09:57;;;;;;;6.90;3.75;;;;;;;;;;5012429;28;20041;-84
2021/06/22 06:12:23;;;;;;;5.57;3.70;;;;;;;;;;5006885;28;20026;-85
2021/06/22 06:14:49;;;;;;;6.32;3.38;;;;;;;;;;5029996;28;20056;-84
2021/06/22 06:17:16;;;;;;;5.28;3.33;;;;;;;;;;4998498;28;20041;-84
2021/06/22 06:19:41;;;;;;;8.68;3.55;;;;;;;;;;4996769;28;20100;-85
2021/06/22 06:22:06;;;;;;;9.68;3.78;;;;;;;;;;5017224;28;20810;-83
2021/06/22 06:24:32;;;;;;;8.13;4.00;;;;;;;;;;4980154;28;20044;-84
2021/06/22 06:27:05;;;;;;;7.47;3.67;;;;;;;;;;4997611;28;20029;-86
2021/06/22 06:32:01;;;;;;;8.73;4.55;;;;;;;;;;5011075;28;20099;-86
2021/06/22 06:34:26;;;;;;;5.30;3.08;;;;;;;;;;5010393;28;20116;-85
2021/06/22 06:36:53;;;;;;;8.45;3.60;;;;;;;;;;5010869;28;20095;-85
2021/06/22 06:39:19;;;;;;;6.78;3.85;;;;;;;;;;5010343;28;20045;-84
2021/06/22 06:41:45;;;;;;;6.93;4.20;;;;;;;;;;4994367;28;20026;-85
2021/06/22 06:44:10;;;;;;;10.30;5.05;;;;;;;;;;5010416;28;20034;-87
2021/06/22 06:46:39;;;;;;;6.72;3.42;;;;;;;;;;4998831;28;20087;-88
2021/06/22 06:49:06;;;;;;;9.70;4.22;;;;;;;;;;4998169;28;20079;-87
2021/06/22 06:51:33;;;;;;;8.73;3.78;;;;;;;;;;4998102;28;20083;-85
2021/06/22 06:53:58;;;;;;;10.90;4.70;;;;;;;;;;4992744;28;20034;-84
2021/06/22 06:56:24;;;;;;;10.77;4.18;;;;;;;;;;5014103;28;20030;-83
2021/06/22 06:58:49;;;;;;;10.77;4.82;;;;;;;;;;4997127;28;20117;-83
2021/06/22 07:01:15;;;;;;;13.55;4.88;;;;;;;;;;5008307;28;20026;-82
2021/06/22 07:03:44;;;;;;;14.50;5.45;;;;;;;;;;5000033;28;20025;-80
2021/06/22 07:06:10;;;;;;;7.68;4.47;;;;;;;;;;5011859;28;20087;-81
2021/06/22 07:08:35;;;;;;;10.32;5.40;;;;;;;;;;5013522;28;20030;-83
2021/06/22 07:11:01;;;;;;;8.82;5.60;;;;;;;;;;5013628;28;20364;-80
2021/06/22 07:13:26;;;;;;;11.45;5.97;;;;;;;;;;5013345;28;20059;-80
2021/06/22 07:15:52;;;;;;;11.23;5.32;;;;;;;;;;5013662;28;20030;-80
2021/06/22 07:18:17;;;;;;;11.25;5.57;;;;;;;;;;4997473;28;20410;-80
2021/06/22 07:20:43;;;;;;;9.68;5.90;;;;;;;;;;5010629;28;20044;-79
2021/06/22 07:23:08;;;;;;;7.82;5.80;;;;;;;;;;5032380;28;20061;-79
2021/06/22 07:25:34;;;;;;;8.23;5.85;;;;;;;;;;5022079;28;20033;-79
2021/06/22 07:27:59;;;;;;;8.98;5.70;;;;;;;;;;5032622;28;20029;-79
2021/06/22 07:30:27;;;;;;;8.55;5.93;;;;;;;;;;5016423;28;20495;-79
2021/06/22 07:32:53;;;;;;;9.45;6.03;;;;;;;;;;5032220;28;20499;-79
2021/06/22 07:35:18;;;;;;;11.73;5.90;;;;;;;;;;5031117;28;20128;-79
2021/06/22 07:37:44;;;;;;;12.32;6.13;;;;;;;;;;5028058;28;20480;-79
2021/06/22 07:40:10;;;;;;;11.38;6.60;;;;;;;;;;5028711;28;20041;-79
2021/06/22 07:42:36;;;;;;;10.45;6.70;;;;;;;;;;5023007;28;20034;-80
2021/06/22 07:45:03;;;;;;;12.93;7.38;;;;;;;;;;4998755;28;20075;-81
2021/06/22 07:47:28;;;;;;;14.27;7.00;;;;;;;;;;5020374;28;20071;-80
2021/06/22 07:49:54;;;;;;;9.88;6.28;;;;;;;;;;4996343;28;20384;-80
2021/06/22 07:52:20;;;;;;;8.85;6.45;;;;;;;;;;4996240;28;20040;-80
2021/06/22 07:54:47;;;;;;;10.68;6.90;;;;;;;;;;4999879;28;20034;-79
2021/06/22 07:57:12;;;;;;;11.63;6.90;;;;;;;;;;4996388;28;20038;-79
2021/06/22 07:59:38;;;;;;;10.32;6.72;;;;;;;;;;4979823;28;20096;-79
2021/06/22 08:02:04;;;;;;;10.38;6.85;;;;;;;;;;4999307;28;20041;-79
2021/06/22 08:04:30;;;;;;;11.15;6.93;;;;;;;;;;4999390;28;20030;-79
2021/06/22 08:06:56;;;;;;;12.23;7.63;;;;;;;;;;4989272;28;20041;-79
2021/06/22 08:09:21;;;;;;;9.20;7.45;;;;;;;;;;4996864;28;20371;-79
2021/06/22 08:11:47;;;;;;;12.13;8.20;;;;;;;;;;5027985;28;20801;-79
2021/06/22 08:14:12;;;;;;;12.20;7.85;;;;;;;;;;5030214;28;20028;-79
2021/06/22 08:16:38;;;;;;;10.55;8.00;;;;;;;;;;5037339;28;20369;-79
2021/06/22 08:19:03;;;;;;;11.45;7.70;;;;;;;;;;5030110;28;20111;-78
2021/06/22 08:21:29;;;;;;;10.65;7.80;;;;;;;;;;5024493;28;20044;-78
2021/06/22 08:23:54;;;;;;;10.93;7.97;;;;;;;;;;5013176;28;20111;-78
2021/06/22 08:26:20;;;;;;;9.50;7.18;;;;;;;;;;5012603;28;20108;-78
2021/06/22 08:28:46;;;;;;;15.27;8.02;;;;;;;;;;4995830;28;20176;-78
2021/06/22 08:31:11;;;;;;;14.27;8.05;;;;;;;;;;5000478;28;20035;-78
2021/06/22 08:33:37;;;;;;;11.30;7.53;;;;;;;;;;5031637;28;20029;-78
2021/06/22 08:36:04;;;;;;;12.70;8.88;;;;;;;;;;5015966;28;20129;-78
2021/06/22 08:38:30;;;;;;;12.23;8.68;;;;;;;;;;5022282;28;20076;-78
2021/06/22 08:40:55;;;;;;;13.60;9.73;;;;;;;;;;5012530;28;20487;-83
2021/06/22 08:43:21;;;;;;;10.60;8.85;;;;;;;;;;5009728;28;20117;-78
2021/06/22 08:45:47;;;;;;;11.50;9.02;;;;;;;;;;4995320;28;20030;-78
2021/06/22 08:48:12;;;;;;;9.90;8.82;;;;;;;;;;5011617;28;20108;-78
2021/06/22 08:50:39;;;;;;;11.00;9.93;;;;;;;;;;5013880;28;20048;-78
2021/06/22 08:53:05;;;;;;;11.45;8.93;;;;;;;;;;5031680;28;20112;-78
2021/06/22 08:55:32;;;;;;;10.50;8.57;;;;;;;;;;5014954;28;20432;-78
2021/06/22 08:58:11;;;;;;;13.00;9.23;;;;;;;;;;5031141;28;20045;-78
2021/06/22 09:00:41;;;;;;;12.63;9.75;;;;;;;;;;5014667;28;20025;-78
2021/06/22 09:03:12;;;;;;;9.80;8.90;;;;;;;;;;4998443;28;20399;-78
2021/06/22 09:05:42;;;;;;;10.20;8.95;;;;;;;;;;5014882;28;20072;-78
2021/06/22 09:08:24;;;;;;;14.55;9.90;;;;;;;;;;5014561;28;20037;-78
2021/06/22 09:10:51;;;;;;;11.35;10.07;;;;;;;;;;5014396;28;20028;-78
2021/06/22 09:13:23;;;;;;;11.10;9.77;;;;;;;;;;5014183;28;20107;-78
2021/06/22 09:15:50;;;;;;;12.93;10.88;;;;;;;;;;5031054;28;20037;-78
2021/06/22 09:18:40;;;;;;;15.48;10.80;;;;;;;;;;4997909;28;20543;-78
2021/06/22 09:21:13;;;;;;;13.63;11.13;;;;;;;;;;5040995;28;20040;-78
2021/06/22 09:23:40;;;;;;;13.70;10.52;;;;;;;;;;5051516;28;20033;-78
2021/06/22 09:26:30;;;;;;;13.10;10.00;;;;;;;;;;5050899;28;20039;-79
2021/06/22 09:29:09;;;;;;;13.02;10.38;;;;;;;;;;5036841;28;20087;-80
2021/06/22 09:31:50;;;;;;;13.10;9.73;;;;;;;;;;5010735;28;20108;-80
2021/06/22 09:34:18;;;;;;;13.30;10.25;;;;;;;;;;5010947;28;20018;-79
2021/06/22 09:36:49;;;;;;;12.20;9.93;;;;;;;;;;5010984;28;20030;-79
2021/06/22 09:39:14;;;;;;;11.80;9.73;;;;;;;;;;4994806;28;20116;-80
2021/06/22 09:41:40;;;;;;;9.43;8.52;;;;;;;;;;4994576;28;20029;-79
2021/06/22 09:44:09;;;;;;;10.30;8.85;;;;;;;;;;5011360;28;20026;-78
2021/06/22 09:46:44;;;;;;;8.98;8.13;;;;;;;;;;5027568;28;20109;-79
2021/06/22 09:49:30;;;;;;;11.80;8.52;;;;;;;;;;5034679;28;20387;-78
2021/06/22 09:52:10;;;;;;;20.42;8.32;;;;;;;;;;5014820;28;20029;-80
2021/06/22 09:54:41;;;;;;;9.63;7.80;;;;;;;;;;5015325;28;20038;-81
2021/06/22 09:57:13;;;;;;;10.60;7.80;;;;;;;;;;5030658;28;20048;-81
2021/06/22 09:59:57;;;;;;;9.32;8.38;;;;;;;;;;5029112;28;20041;-81
2021/06/22 10:02:27;;;;;;;9.95;7.70;;;;;;;;;;5029873;28;20605;-81
2021/06/22 10:04:57;;;;;;;11.85;8.38;;;;;;;;;;5030221;28;20091;-81
2021/06/22 10:07:24;;;;;;;9.00;7.47;;;;;;;;;;4999113;28;20030;-81
2021/06/22 10:09:54;;;;;;;10.40;7.57;;;;;;;;;;5009647;28;20028;-81
2021/06/22 10:12:20;;;;;;;8.50;7.57;;;;;;;;;;5026679;28;20041;-80
2021/06/22 10:14:47;;;;;;;8.73;7.82;;;;;;;;;;5018632;28;20037;-80
2021/06/22 10:17:18;;;;;;;8.40;7.45;;;;;;;;;;5010344;28;20522;-80
2021/06/22 10:19:45;;;;;;;9.93;6.85;;;;;;;;;;5006698;28;20025;-79
2021/06/22 10:22:11;;;;;;;9.57;6.55;;;;;;;;;;5031387;28;20420;-79
2021/06/22 10:24:40;;;;;;;8.43;6.80;;;;;;;;;;5049956;28;20044;-79
2021/06/22 10:27:06;;;;;;;9.27;6.57;;;;;;;;;;5001778;28;20073;-78
2021/06/22 10:29:31;;;;;;;9.70;7.15;;;;;;;;;;5025348;28;20057;-79
2021/06/22 10:31:57;;;;;;;9.27;6.63;;;;;;;;;;5045253;28;20041;-77
2021/06/22 10:34:23;;;;;;;9.05;6.20;;;;;;;;;;5005880;28;20522;-79
2021/06/22 10:37:00;;;;;;;6.43;5.82;;;;;;;;;;5017222;28;20030;-77
2021/06/22 10:40:13;;;;;;;8.40;5.88;;;;;;;;;;5017157;28;20104;-77
2021/06/22 10:42:42;;;;;;;7.32;6.60;;;;;;;;;;5033382;28;20384;-78
2021/06/22 10:45:08;;;;;;;6.45;5.78;;;;;;;;;;5033849;28;20046;-78
2021/06/22 10:47:40;;;;;;;7.93;5.07;;;;;;;;;;5034636;28;20041;-78
2021/06/22 10:50:09;;;;;;;6.82;5.07;;;;;;;;;;5017915;28;20033;-78
2021/06/22 10:52:47;;;;;;;7.55;5.47;;;;;;;;;;5035379;28;20041;-77
2021/06/22 10:55:22;;;;;;;8.60;7.20;;;;;;;;;;5017678;28;20029;-78
2021/06/22 10:57:59;;;;;;;10.55;7.32;;;;;;;;;;5018165;28;20108;-77
2021/06/22 11:00:24;;;;;;;11.77;9.25;;;;;;;;;;5033312;28;20065;-77
2021/06/22 11:03:06;;;;;;;12.77;8.75;;;;;;;;;;5033484;28;20125;-77
2021/06/22 11:05:39;;;;;;;13.43;9.13;;;;;;;;;;5033774;28;20083;-77
2021/06/22 11:08:14;;;;;;;11.65;9.50;;;;;;;;;;5015022;28;20033;-77
2021/06/22 11:10:55;;;;;;;12.32;9.02;;;;;;;;;;5030190;28;20033;-78
2021/06/22 11:13:46;;;;;;;11.05;8.10;;;;;;;;;;5018944;28;20044;-78
2021/06/22 11:16:18;;;;;;;10.98;8.43;;;;;;;;;;5033426;28;20056;-77
2021/06/22 11:21:33;;;;;;;11.88;8.27;;;;;;;;;;5046370;28;20036;-80
2021/06/22 11:24:08;;;;;;;10.00;7.50;;;;;;;;;;5053070;28;20048;-81
2021/06/22 11:26:53;;;;;;;11.50;6.85;;;;;;;;;;5053291;28;20029;-81
2021/06/22 11:29:36;;;;;;;12.10;6.80;;;;;;;;;;5049338;28;20097;-80
2021/06/22 11:32:02;;;;;;;11.15;7.22;;;;;;;;;;5034055;28;20026;-77
2021/06/22 11:34:34;;;;;;;10.02;7.50;;;;;;;;;;4999060;28;20506;-77
2021/06/22 11:37:06;;;;;;;;;;;;;;;;;;5024002;28;20618;-77
2021/06/22 11:39:35;;;;;;;10.23;6.78;;;;;;;;;;5033447;28;20382;-77
2021/06/22 11:42:07;;;;;;;9.32;6.88;;;;;;;;;;5032418;28;20068;-77
2021/06/22 11:44:36;;;;;;;9.38;5.88;;;;;;;;;;5033383;28;20037;-77
2021/06/22 11:47:05;;;;;;;10.32;6.15;;;;;;;;;;5000521;28;20498;-77
2021/06/22 11:49:38;;;;;;;8.02;5.45;;;;;;;;;;5025243;28;20036;-76
2021/06/22 11:52:04;;;;;;;10.02;6.28;;;;;;;;;;5016525;28;20037;-77
2021/06/22 11:54:50;;;;;;;9.95;5.18;;;;;;;;;;5015062;28;20091;-77
2021/06/22 11:57:20;;;;;;;8.63;5.82;;;;;;;;;;5033854;28;20109;-76
2021/06/22 11:59:46;;;;;;;7.05;5.00;;;;;;;;;;5013882;28;20029;-77
2021/06/22 12:02:12;;;;;;;7.60;5.20;;;;;;;;;;5048014;28;20098;-77
2021/06/22 12:04:37;;;;;;;9.13;5.20;;;;;;;;;;5014140;28;20041;-77
2021/06/22 12:07:03;;;;;;;7.10;4.90;;;;;;;;;;5032640;28;20043;-77
2021/06/22 12:09:28;;;;;;;11.10;6.55;;;;;;;;;;5032417;28;20022;-77
2021/06/22 12:11:55;;;;;;;10.85;7.68;;;;;;;;;;5032430;28;20041;-77
2021/06/22 12:14:20;;;;;;;33.05;23.25;;;;;;;;;;5047273;28;20037;-77
2021/06/22 12:16:48;;;;;;;35.45;25.40;;;;;;;;;;5031915;28;20030;-77
2021/06/22 12:19:18;;;;;;;34.47;26.15;;;;;;;;;;5032181;28;20030;-77
2021/06/22 12:22:03;;;;;;;40.72;29.90;;;;;;;;;;5030728;28;20032;-76
2021/06/22 12:24:29;;;;;;;38.13;28.48;;;;;;;;;;5035518;28;20040;-77
2021/06/22 12:26:54;;;;;;;32.58;24.80;;;;;;;;;;5035243;28;20060;-77
2021/06/22 12:29:27;;;;;;;38.03;26.77;;;;;;;;;;5040781;28;20025;-77
2021/06/22 12:32:06;;;;;;;33.78;25.38;;;;;;;;;;5014937;28;20487;-77
2021/06/22 12:34:34;;;;;;;29.30;21.75;;;;;;;;;;5015499;28;20030;-77
2021/06/22 12:37:00;;;;;;;34.83;23.00;;;;;;;;;;5015483;28;20689;-77
2021/06/22 12:39:26;;;;;;;31.90;22.92;;;;;;;;;;5015346;28;20049;-77
2021/06/22 12:42:01;;;;;;;25.50;20.35;;;;;;;;;;4999521;28;20036;-77
2021/06/22 12:44:26;;;;;;;27.08;19.10;;;;;;;;;;5031703;28;20034;-77
2021/06/22 12:46:52;;;;;;;21.85;18.02;;;;;;;;;;4998799;28;20029;-77
2021/06/22 12:49:24;;;;;;;25.92;17.88;;;;;;;;;;5015019;28;20032;-77
2021/06/22 12:51:49;;;;;;;;;;;;;;;;;;4998900;28;20033;-77
2021/06/22 12:54:15;;;;;;;23.08;15.93;;;;;;;;;;5031156;28;19913;-77
2021/06/22 12:57:00;;;;;;;21.52;15.95;;;;;;;;;;5011040;28;20069;-77
2021/06/22 12:59:27;;;;;;;21.77;15.75;;;;;;;;;;5027903;28;20077;-77
2021/06/22 13:02:07;;;;;;;18.55;15.00;;;;;;;;;;5011343;28;20029;-77
2021/06/22 13:04:38;;;;;;;19.35;14.45;;;;;;;;;;5011548;28;20095;-76
2021/06/22 13:07:11;;;;;;;18.25;13.13;;;;;;;;;;5012895;28;20092;-76
2021/06/22 13:09:39;;;;;;;19.40;12.57;;;;;;;;;;5013407;28;20034;-76
2021/06/22 13:12:13;;;;;;;17.48;13.48;;;;;;;;;;5031267;28;20029;-77
2021/06/22 13:14:41;;;;;;;22.13;16.67;;;;;;;;;;5047383;28;20119;-76
2021/06/22 13:17:08;;;;;;;57.53;42.08;;;;;;;;;;5031715;28;20025;-76
2021/06/22 13:19:41;;;;;;;54.10;41.00;;;;;;;;;;5030789;28;20029;-76
2021/06/22 13:22:07;;;;;;;50.08;39.42;;;;;;;;;;5029168;28;20492;-77
2021/06/22 13:24:36;;;;;;;38.67;31.83;;;;;;;;;;5011154;28;20049;-76
2021/06/22 13:27:10;;;;;;;36.95;28.95;;;;;;;;;;5027873;28;20431;-77
2021/06/22 13:30:09;;;;;;;35.10;29.13;;;;;;;;;;5010371;28;20034;-77
2021/06/22 13:32:37;;;;;;;37.05;28.95;;;;;;;;;;5024554;28;20050;-77
2021/06/22 13:35:08;;;;;;;30.27;24.88;;;;;;;;;;5021702;28;20069;-77
2021/06/22 13:37:34;;;;;;;29.48;25.13;;;;;;;;;;5014345;28;20039;-77
2021/06/22 13:40:06;;;;;;;27.13;22.15;;;;;;;;;;4997222;28;20017;-77
2021/06/22 13:42:32;;;;;;;22.38;15.82;;;;;;;;;;4997371;28;20029;-77
2021/06/22 13:45:12;;;;;;;17.90;14.13;;;;;;;;;;5013711;28;20551;-77
2021/06/22 13:47:41;;;;;;;14.18;12.25;;;;;;;;;;4981719;28;20479;-77
2021/06/22 13:50:14;;;;;;;13.30;11.15;;;;;;;;;;5014867;28;20033;-77
2021/06/22 13:52:47;;;;;;;12.32;9.00;;;;;;;;;;5047020;28;20072;-77
2021/06/22 13:55:12;;;;;;;12.77;9.55;;;;;;;;;;5030751;28;20037;-77
2021/06/22 13:57:39;;;;;;;11.98;8.68;;;;;;;;;;5013938;28;20500;-77
2021/06/22 14:00:08;;;;;;;9.70;7.75;;;;;;;;;;5030067;28;20033;-77
2021/06/22 14:02:34;;;;;;;8.60;7.50;;;;;;;;;;5030698;28;20053;-77
2021/06/22 14:04:59;;;;;;;10.30;6.28;;;;;;;;;;5014089;28;20099;-77
2021/06/22 14:07:25;;;;;;;10.43;6.70;;;;;;;;;;5030136;28;20438;-77
2021/06/22 14:09:52;;;;;;;7.28;6.32;;;;;;;;;;5013837;28;20056;-77
2021/06/22 14:12:18;;;;;;;7.53;5.90;;;;;;;;;;5030090;28;20048;-78
2021/06/22 14:14:43;;;;;;;7.35;5.95;;;;;;;;;;5014066;28;20033;-78
2021/06/22 14:17:09;;;;;;;8.90;5.57;;;;;;;;;;5011073;28;20033;-78
2021/06/22 14:19:34;;;;;;;10.10;5.90;;;;;;;;;;5010687;28;20037;-78
2021/06/22 14:22:00;;;;;;;7.88;5.82;;;;;;;;;;5028435;28;20064;-79
2021/06/22 14:24:26;;;;;;;6.55;5.57;;;;;;;;;;5033420;28;20067;-78
2021/06/22 14:26:52;;;;;;;7.85;5.38;;;;;;;;;;5050220;28;20501;-79
2021/06/22 14:29:17;;;;;;;6.88;5.30;;;;;;;;;;5049779;28;20029;-78
2021/06/22 14:31:43;;;;;;;10.18;5.53;;;;;;;;;;5049765;28;20040;-79
2021/06/22 14:34:08;;;;;;;6.45;5.13;;;;;;;;;;5047762;28;20099;-81
2021/06/22 14:36:34;;;;;;;8.20;4.50;;;;;;;;;;5014106;28;20128;-82
2021/06/22 14:38:59;;;;;;;6.43;5.18;;;;;;;;;;5013239;28;20026;-81
2021/06/22 14:41:25;;;;;;;6.75;5.20;;;;;;;;;;5026307;28;20092;-84
2021/06/22 14:43:50;;;;;;;7.30;4.28;;;;;;;;;;4994046;28;20033;-84
2021/06/22 14:46:16;;;;;;;5.65;4.43;;;;;;;;;;5006874;28;20034;-84
2021/06/22 14:48:41;;;;;;;21.70;6.15;;;;;;;;;;4995705;28;20056;-84
2021/06/22 14:51:07;;;;;;;18.20;5.75;;;;;;;;;;4995145;28;20102;-83
2021/06/22 14:53:32;;;;;;;11.48;5.38;;;;;;;;;;5010926;28;20415;-85
2021/06/22 14:55:58;;;;;;;8.48;5.55;;;;;;;;;;4996840;28;20040;-83
2021/06/22 14:58:23;;;;;;;7.68;5.07;;;;;;;;;;4997050;28;20443;-82
2021/06/22 15:00:57;;;;;;;8.05;4.40;;;;;;;;;;5012627;28;20052;-83